createdAt,value
2022-07-29T00:00:09.865Z,995.79
2022-07-29T00:01:07.886Z,995.79
2022-07-29T00:02:08.853Z,995.79
2022-07-29T00:03:07.891Z,995.78
2022-07-29T00:04:07.897Z,995.78
2022-07-29T00:05:07.845Z,995.71
2022-07-29T00:06:07.844Z,995.75
2022-07-29T00:07:07.814Z,995.75
2022-07-29T00:08:10.749Z,995.77
2022-07-29T00:09:08.798Z,995.76
2022-07-29T00:10:07.801Z,995.69
2022-07-29T00:11:07.815Z,995.71
2022-07-29T00:12:07.777Z,995.78
2022-07-29T00:13:07.766Z,995.72
2022-07-29T00:14:07.811Z,995.74
2022-07-29T00:15:07.752Z,995.73
2022-07-29T00:16:07.808Z,995.71
2022-07-29T00:17:07.744Z,995.65
2022-07-29T00:18:07.736Z,995.61
2022-07-29T00:19:07.944Z,995.59
2022-07-29T00:20:07.709Z,995.60
2022-07-29T00:21:07.733Z,995.54
2022-07-29T00:22:07.705Z,995.57
2022-07-29T00:23:07.691Z,995.56
2022-07-29T00:24:08.689Z,995.51
2022-07-29T00:25:07.675Z,995.56
2022-07-29T00:26:07.708Z,995.49
2022-07-29T00:27:07.666Z,995.59
2022-07-29T00:28:07.656Z,995.55
2022-07-29T00:29:33.073Z,995.55
2022-07-29T00:30:09.639Z,995.51
2022-07-29T00:31:07.694Z,995.42
2022-07-29T00:32:07.651Z,995.34
2022-07-29T00:33:09.180Z,995.39
2022-07-29T00:34:08.605Z,995.43
2022-07-29T00:35:07.603Z,995.47
2022-07-29T00:36:07.618Z,995.42
2022-07-29T00:37:07.859Z,995.36
2022-07-29T00:38:07.577Z,995.28
2022-07-29T00:39:07.572Z,995.35
2022-07-29T00:40:07.562Z,995.24
2022-07-29T00:41:07.578Z,995.28
2022-07-29T00:42:07.545Z,995.31
2022-07-29T00:43:07.537Z,995.27
2022-07-29T00:44:07.531Z,995.34
2022-07-29T00:45:07.515Z,995.30
2022-07-29T00:46:08.546Z,995.26
2022-07-29T00:47:07.627Z,995.28
2022-07-29T00:48:07.540Z,995.26
2022-07-29T00:49:07.553Z,995.31
2022-07-29T00:50:07.487Z,995.30
2022-07-29T00:51:07.514Z,995.31
2022-07-29T00:52:07.484Z,995.25
2022-07-29T00:53:07.465Z,995.23
2022-07-29T00:54:07.457Z,995.28
2022-07-29T00:55:08.727Z,995.26
2022-07-29T00:56:08.501Z,995.29
2022-07-29T00:57:07.437Z,995.15
2022-07-29T00:58:07.433Z,995.16
2022-07-29T00:59:07.420Z,995.16
2022-07-29T01:00:07.412Z,995.16
2022-07-29T01:01:07.479Z,995.17
2022-07-29T01:02:07.449Z,995.18
2022-07-29T01:03:07.392Z,995.15
2022-07-29T01:04:07.381Z,995.09
2022-07-29T01:05:07.381Z,995.15
2022-07-29T01:06:07.384Z,995.04
2022-07-29T01:07:07.383Z,995.09
2022-07-29T01:08:07.352Z,995.10
2022-07-29T01:09:07.353Z,995.07
2022-07-29T01:10:07.341Z,995.07
2022-07-29T01:11:07.326Z,995.01
2022-07-29T01:12:07.353Z,995.10
2022-07-29T01:13:08.524Z,995.04
2022-07-29T01:14:07.311Z,995.02
2022-07-29T01:15:07.300Z,995.05
2022-07-29T01:16:07.379Z,995.06
2022-07-29T01:17:07.313Z,995.07
2022-07-29T01:18:07.277Z,994.96
2022-07-29T01:19:39.918Z,995.11
2022-07-29T01:20:07.272Z,995.13
2022-07-29T01:21:07.259Z,995.05
2022-07-29T01:22:07.278Z,995.06
2022-07-29T01:23:07.246Z,995.02
2022-07-29T01:24:07.233Z,995.03
2022-07-29T01:25:07.229Z,995.11
2022-07-29T01:26:07.226Z,995.09
2022-07-29T01:27:07.241Z,995.12
2022-07-29T01:28:07.209Z,995.11
2022-07-29T01:29:08.279Z,995.07
2022-07-29T01:30:07.190Z,995.20
2022-07-29T01:31:07.235Z,995.09
2022-07-29T01:32:07.254Z,995.05
2022-07-29T01:33:07.162Z,995.10
2022-07-29T01:34:07.169Z,995.07
2022-07-29T01:35:07.270Z,995.00
2022-07-29T01:36:07.145Z,995.02
2022-07-29T01:37:07.162Z,994.98
2022-07-29T01:38:07.121Z,994.98
2022-07-29T01:39:07.121Z,994.91
2022-07-29T01:40:07.109Z,994.90
2022-07-29T01:41:07.102Z,994.88
2022-07-29T01:42:07.145Z,994.90
2022-07-29T01:43:07.099Z,994.84
2022-07-29T01:44:07.083Z,994.85
2022-07-29T01:45:07.068Z,994.82
2022-07-29T01:46:07.103Z,994.88
2022-07-29T01:47:07.085Z,994.77
2022-07-29T01:48:07.047Z,994.78
2022-07-29T01:49:07.085Z,994.89
2022-07-29T01:50:07.040Z,994.78
2022-07-29T01:51:07.026Z,994.85
2022-07-29T01:52:07.041Z,994.83
2022-07-29T01:53:07.010Z,994.77
2022-07-29T01:54:06.995Z,994.73
2022-07-29T01:55:07.032Z,994.71
2022-07-29T01:56:06.987Z,994.71
2022-07-29T01:57:07.005Z,994.73
2022-07-29T01:58:06.994Z,994.71
2022-07-29T01:59:06.966Z,994.63
2022-07-29T02:00:06.964Z,994.74
2022-07-29T02:01:06.954Z,994.68
2022-07-29T02:02:07.043Z,994.68
2022-07-29T02:03:06.935Z,994.64
2022-07-29T02:04:06.936Z,994.69
2022-07-29T02:05:06.978Z,994.65
2022-07-29T02:06:06.914Z,994.68
2022-07-29T02:07:06.936Z,994.69
2022-07-29T02:08:06.901Z,994.72
2022-07-29T02:09:06.889Z,994.66
2022-07-29T02:10:06.884Z,994.68
2022-07-29T02:11:06.878Z,994.70
2022-07-29T02:12:06.898Z,994.66
2022-07-29T02:13:06.863Z,994.63
2022-07-29T02:14:06.855Z,994.62
2022-07-29T02:15:06.846Z,994.65
2022-07-29T02:16:06.909Z,994.64
2022-07-29T02:17:07.064Z,994.61
2022-07-29T02:18:06.821Z,994.62
2022-07-29T02:19:06.817Z,994.60
2022-07-29T02:20:06.805Z,994.65
2022-07-29T02:21:06.825Z,994.69
2022-07-29T02:22:07.818Z,994.62
2022-07-29T02:23:06.780Z,994.64
2022-07-29T02:24:06.777Z,994.60
2022-07-29T02:25:06.764Z,994.67
2022-07-29T02:26:07.761Z,994.67
2022-07-29T02:27:06.784Z,994.66
2022-07-29T02:28:06.752Z,994.61
2022-07-29T02:29:06.738Z,994.60
2022-07-29T02:30:06.733Z,994.68
2022-07-29T02:31:06.763Z,994.71
2022-07-29T02:32:06.750Z,994.65
2022-07-29T02:33:06.705Z,994.66
2022-07-29T02:34:06.707Z,994.62
2022-07-29T02:35:06.692Z,994.64
2022-07-29T02:36:06.695Z,994.55
2022-07-29T02:37:06.705Z,994.60
2022-07-29T02:38:06.676Z,994.57
2022-07-29T02:39:06.671Z,994.56
2022-07-29T02:40:06.669Z,994.61
2022-07-29T02:41:06.654Z,994.66
2022-07-29T02:42:06.673Z,994.58
2022-07-29T02:43:06.639Z,994.64
2022-07-29T02:44:06.634Z,994.63
2022-07-29T02:45:06.621Z,994.58
2022-07-29T02:46:06.637Z,994.61
2022-07-29T02:47:07.632Z,994.56
2022-07-29T02:48:06.602Z,994.67
2022-07-29T02:49:06.651Z,994.70
2022-07-29T02:50:06.585Z,994.59
2022-07-29T02:51:06.582Z,994.61
2022-07-29T02:52:06.596Z,994.62
2022-07-29T02:53:06.562Z,994.70
2022-07-29T02:54:06.555Z,994.63
2022-07-29T02:55:06.553Z,994.69
2022-07-29T02:56:06.534Z,994.68
2022-07-29T02:57:06.561Z,994.60
2022-07-29T02:58:06.526Z,994.69
2022-07-29T02:59:06.525Z,994.72
2022-07-29T03:00:06.507Z,994.70
2022-07-29T03:01:06.622Z,994.61
2022-07-29T03:02:06.562Z,994.72
2022-07-29T03:03:06.489Z,994.71
2022-07-29T03:04:06.485Z,994.70
2022-07-29T03:05:06.519Z,994.68
2022-07-29T03:06:06.455Z,994.75
2022-07-29T03:07:06.475Z,994.72
2022-07-29T03:08:06.447Z,994.68
2022-07-29T03:09:12.043Z,994.77
2022-07-29T03:10:10.868Z,994.78
2022-07-29T03:11:07.417Z,994.76
2022-07-29T03:12:06.441Z,994.73
2022-07-29T03:13:06.412Z,994.71
2022-07-29T03:14:06.397Z,994.69
2022-07-29T03:15:06.392Z,994.72
2022-07-29T03:16:06.430Z,994.60
2022-07-29T03:17:06.400Z,994.64
2022-07-29T03:18:06.369Z,994.75
2022-07-29T03:19:06.359Z,994.68
2022-07-29T03:20:06.347Z,994.69
2022-07-29T03:21:06.338Z,994.67
2022-07-29T03:22:06.360Z,994.68
2022-07-29T03:23:06.326Z,994.67
2022-07-29T03:24:10.308Z,994.55
2022-07-29T03:25:07.310Z,994.61
2022-07-29T03:26:06.298Z,994.63
2022-07-29T03:27:06.331Z,994.66
2022-07-29T03:28:06.289Z,994.64
2022-07-29T03:29:06.274Z,994.67
2022-07-29T03:30:06.269Z,994.70
2022-07-29T03:31:06.296Z,994.68
2022-07-29T03:32:08.043Z,994.69
2022-07-29T03:33:13.219Z,994.70
2022-07-29T03:34:07.236Z,994.76
2022-07-29T03:35:06.228Z,994.71
2022-07-29T03:36:06.229Z,994.70
2022-07-29T03:37:06.236Z,994.71
2022-07-29T03:38:07.205Z,994.70
2022-07-29T03:39:06.200Z,994.65
2022-07-29T03:40:06.187Z,994.71
2022-07-29T03:41:06.180Z,994.69
2022-07-29T03:42:06.202Z,994.75
2022-07-29T03:43:06.171Z,994.74
2022-07-29T03:44:06.159Z,994.72
2022-07-29T03:45:06.153Z,994.74
2022-07-29T03:46:06.180Z,994.74
2022-07-29T03:47:06.164Z,994.71
2022-07-29T03:48:06.130Z,994.73
2022-07-29T03:49:06.179Z,994.64
2022-07-29T03:50:06.113Z,994.71
2022-07-29T03:51:06.107Z,994.76
2022-07-29T03:52:06.130Z,994.74
2022-07-29T03:53:06.086Z,994.73
2022-07-29T03:54:09.924Z,994.71
2022-07-29T03:55:07.073Z,994.62
2022-07-29T03:56:06.062Z,994.67
2022-07-29T03:57:06.049Z,994.64
2022-07-29T03:58:06.084Z,994.62
2022-07-29T03:59:06.039Z,994.63
2022-07-29T04:00:06.036Z,994.62
2022-07-29T04:01:06.019Z,994.59
2022-07-29T04:02:06.064Z,994.60
2022-07-29T04:03:06.112Z,994.50
2022-07-29T04:04:06.995Z,994.54
2022-07-29T04:05:05.993Z,994.56
2022-07-29T04:06:05.986Z,994.58
2022-07-29T04:07:05.984Z,994.58
2022-07-29T04:08:05.985Z,994.61
2022-07-29T04:09:06.962Z,994.64
2022-07-29T04:10:05.963Z,994.65
2022-07-29T04:11:05.947Z,994.67
2022-07-29T04:12:05.946Z,994.63
2022-07-29T04:13:05.955Z,994.67
2022-07-29T04:14:05.916Z,994.72
2022-07-29T04:15:05.911Z,994.76
2022-07-29T04:16:05.939Z,994.73
2022-07-29T04:17:05.895Z,994.79
2022-07-29T04:18:05.909Z,994.78
2022-07-29T04:19:05.941Z,994.77
2022-07-29T04:20:05.873Z,994.64
2022-07-29T04:21:05.871Z,994.76
2022-07-29T04:22:05.859Z,994.77
2022-07-29T04:23:05.874Z,994.71
2022-07-29T04:24:05.845Z,994.71
2022-07-29T04:25:05.845Z,994.71
2022-07-29T04:26:05.825Z,994.63
2022-07-29T04:27:05.823Z,994.66
2022-07-29T04:28:05.838Z,994.69
2022-07-29T04:29:05.811Z,994.69
2022-07-29T04:30:05.791Z,994.73
2022-07-29T04:31:05.846Z,994.74
2022-07-29T04:32:05.799Z,994.76
2022-07-29T04:33:05.799Z,994.77
2022-07-29T04:34:05.769Z,994.75
2022-07-29T04:35:05.765Z,994.78
2022-07-29T04:36:05.752Z,994.75
2022-07-29T04:37:06.747Z,994.72
2022-07-29T04:38:05.763Z,994.77
2022-07-29T04:39:05.728Z,994.73
2022-07-29T04:40:05.715Z,994.77
2022-07-29T04:41:05.712Z,994.75
2022-07-29T04:42:05.696Z,994.72
2022-07-29T04:43:06.724Z,994.69
2022-07-29T04:44:05.682Z,994.67
2022-07-29T04:45:05.686Z,994.57
2022-07-29T04:46:05.731Z,994.64
2022-07-29T04:47:05.669Z,994.67
2022-07-29T04:48:05.680Z,994.61
2022-07-29T04:49:05.701Z,994.58
2022-07-29T04:50:05.654Z,994.52
2022-07-29T04:51:05.635Z,994.58
2022-07-29T04:52:05.633Z,994.63
2022-07-29T04:53:05.944Z,994.54
2022-07-29T04:54:05.609Z,994.56
2022-07-29T04:55:05.604Z,994.59
2022-07-29T04:56:05.596Z,994.62
2022-07-29T04:57:05.586Z,994.48
2022-07-29T04:58:05.606Z,994.55
2022-07-29T04:59:05.569Z,994.52
2022-07-29T05:00:05.564Z,994.51
2022-07-29T05:01:05.657Z,994.50
2022-07-29T05:02:05.636Z,994.44
2022-07-29T05:03:05.666Z,994.47
2022-07-29T05:04:05.532Z,994.50
2022-07-29T05:05:06.531Z,994.52
2022-07-29T05:06:05.524Z,994.52
2022-07-29T05:07:05.510Z,994.50
2022-07-29T05:08:05.533Z,994.46
2022-07-29T05:09:05.500Z,994.51
2022-07-29T05:10:05.494Z,994.53
2022-07-29T05:11:11.831Z,994.57
2022-07-29T05:12:06.504Z,994.56
2022-07-29T05:13:05.500Z,994.57
2022-07-29T05:14:05.466Z,994.45
2022-07-29T05:15:05.487Z,994.59
2022-07-29T05:16:05.468Z,994.47
2022-07-29T05:17:05.441Z,994.50
2022-07-29T05:18:05.455Z,994.50
2022-07-29T05:19:05.422Z,994.52
2022-07-29T05:20:05.422Z,994.50
2022-07-29T05:21:05.413Z,994.55
2022-07-29T05:22:05.407Z,994.48
2022-07-29T05:23:05.426Z,994.54
2022-07-29T05:24:05.388Z,994.52
2022-07-29T05:25:09.013Z,994.57
2022-07-29T05:26:06.375Z,994.57
2022-07-29T05:27:05.369Z,994.61
2022-07-29T05:28:05.386Z,994.40
2022-07-29T05:29:05.351Z,994.56
2022-07-29T05:30:05.346Z,994.53
2022-07-29T05:31:05.406Z,994.51
2022-07-29T05:32:05.328Z,994.56
2022-07-29T05:33:05.359Z,994.53
2022-07-29T05:34:05.309Z,994.63
2022-07-29T05:35:05.308Z,994.56
2022-07-29T05:36:05.309Z,994.60
2022-07-29T05:37:05.295Z,994.62
2022-07-29T05:38:05.318Z,994.57
2022-07-29T05:39:05.288Z,994.65
2022-07-29T05:40:05.279Z,994.60
2022-07-29T05:41:05.275Z,994.68
2022-07-29T05:42:05.257Z,994.67
2022-07-29T05:43:05.280Z,994.60
2022-07-29T05:44:05.241Z,994.63
2022-07-29T05:45:05.231Z,994.68
2022-07-29T05:46:05.280Z,994.66
2022-07-29T05:47:05.214Z,994.65
2022-07-29T05:48:05.211Z,994.65
2022-07-29T05:49:05.294Z,994.60
2022-07-29T05:50:05.196Z,994.61
2022-07-29T05:51:05.190Z,994.60
2022-07-29T05:52:05.179Z,994.63
2022-07-29T05:53:19.017Z,994.62
2022-07-29T05:54:06.190Z,994.66
2022-07-29T05:55:05.165Z,994.65
2022-07-29T05:56:05.152Z,994.63
2022-07-29T05:57:05.151Z,994.68
2022-07-29T05:58:05.147Z,994.65
2022-07-29T05:59:05.152Z,994.71
2022-07-29T06:00:06.166Z,994.69
2022-07-29T06:01:05.179Z,994.70
2022-07-29T06:02:05.103Z,994.70
2022-07-29T06:03:05.098Z,994.70
2022-07-29T06:04:05.177Z,994.76
2022-07-29T06:05:05.078Z,994.76
2022-07-29T06:06:06.075Z,994.78
2022-07-29T06:07:05.060Z,994.75
2022-07-29T06:08:05.056Z,994.72
2022-07-29T06:09:12.178Z,994.77
2022-07-29T06:10:06.040Z,994.74
2022-07-29T06:11:05.034Z,994.77
2022-07-29T06:12:05.021Z,994.76
2022-07-29T06:13:05.017Z,994.74
2022-07-29T06:14:05.030Z,994.86
2022-07-29T06:15:05.003Z,994.81
2022-07-29T06:16:05.025Z,994.90
2022-07-29T06:17:05.033Z,994.90
2022-07-29T06:18:04.990Z,994.90
2022-07-29T06:19:04.987Z,994.86
2022-07-29T06:20:07.500Z,994.87
2022-07-29T06:21:04.957Z,994.86
2022-07-29T06:22:04.946Z,994.90
2022-07-29T06:23:04.937Z,994.91
2022-07-29T06:24:04.962Z,994.96
2022-07-29T06:25:04.925Z,994.96
2022-07-29T06:26:04.914Z,994.91
2022-07-29T06:27:04.907Z,994.95
2022-07-29T06:28:04.903Z,994.98
2022-07-29T06:29:04.911Z,994.96
2022-07-29T06:30:05.384Z,995.02
2022-07-29T06:31:05.977Z,994.97
2022-07-29T06:32:04.874Z,994.99
2022-07-29T06:33:04.861Z,995.02
2022-07-29T06:34:04.873Z,995.10
2022-07-29T06:35:37.530Z,995.17
2022-07-29T06:36:06.833Z,995.13
2022-07-29T06:37:04.834Z,995.16
2022-07-29T06:38:12.032Z,995.22
2022-07-29T06:39:05.846Z,995.26
2022-07-29T06:40:04.804Z,995.26
2022-07-29T06:41:04.955Z,995.30
2022-07-29T06:42:04.794Z,995.21
2022-07-29T06:43:04.790Z,995.30
2022-07-29T06:44:04.805Z,995.34
2022-07-29T06:45:09.195Z,995.37
2022-07-29T06:46:05.804Z,995.34
2022-07-29T06:47:04.750Z,995.36
2022-07-29T06:48:04.747Z,995.36
2022-07-29T06:49:04.812Z,995.40
2022-07-29T06:50:04.731Z,995.45
2022-07-29T06:51:04.722Z,995.47
2022-07-29T06:52:04.717Z,995.45
2022-07-29T06:53:04.709Z,995.52
2022-07-29T06:54:04.733Z,995.46
2022-07-29T06:55:04.696Z,995.55
2022-07-29T06:56:04.690Z,995.57
2022-07-29T06:57:04.683Z,995.54
2022-07-29T06:58:04.668Z,995.65
2022-07-29T06:59:04.693Z,995.67
2022-07-29T07:00:04.663Z,995.68
2022-07-29T07:01:04.709Z,995.67
2022-07-29T07:02:04.684Z,995.66
2022-07-29T07:03:04.635Z,995.67
2022-07-29T07:04:04.652Z,995.65
2022-07-29T07:05:04.611Z,995.66
2022-07-29T07:06:04.616Z,995.65
2022-07-29T07:07:04.598Z,995.67
2022-07-29T07:08:04.591Z,995.71
2022-07-29T07:09:04.614Z,995.61
2022-07-29T07:10:04.574Z,995.69
2022-07-29T07:11:04.569Z,995.54
2022-07-29T07:12:04.570Z,995.62
2022-07-29T07:13:04.560Z,995.56
2022-07-29T07:14:04.650Z,995.55
2022-07-29T07:15:04.546Z,995.54
2022-07-29T07:16:04.556Z,995.52
2022-07-29T07:17:04.571Z,995.55
2022-07-29T07:18:04.525Z,995.61
2022-07-29T07:19:36.451Z,995.55
2022-07-29T07:20:04.504Z,995.55
2022-07-29T07:21:04.505Z,995.61
2022-07-29T07:22:04.491Z,995.59
2022-07-29T07:23:04.481Z,995.56
2022-07-29T07:24:04.511Z,995.55
2022-07-29T07:25:04.465Z,995.51
2022-07-29T07:26:04.462Z,995.63
2022-07-29T07:27:04.471Z,995.52
2022-07-29T07:28:04.459Z,995.49
2022-07-29T07:29:04.457Z,995.50
2022-07-29T07:30:04.423Z,995.48
2022-07-29T07:31:04.419Z,995.50
2022-07-29T07:32:04.441Z,995.44
2022-07-29T07:33:04.411Z,995.41
2022-07-29T07:34:04.516Z,995.40
2022-07-29T07:35:04.403Z,995.38
2022-07-29T07:36:04.378Z,995.33
2022-07-29T07:37:04.369Z,995.35
2022-07-29T07:38:04.365Z,995.37
2022-07-29T07:39:04.355Z,995.35
2022-07-29T07:40:04.370Z,995.42
2022-07-29T07:41:04.342Z,995.38
2022-07-29T07:42:04.326Z,995.49
2022-07-29T07:43:04.325Z,995.48
2022-07-29T07:44:04.324Z,995.47
2022-07-29T07:45:13.542Z,995.46
2022-07-29T07:46:06.402Z,995.36
2022-07-29T07:47:12.232Z,995.44
2022-07-29T07:48:05.290Z,995.39
2022-07-29T07:49:04.309Z,995.32
2022-07-29T07:50:04.290Z,995.31
2022-07-29T07:51:04.260Z,995.27
2022-07-29T07:52:04.254Z,995.16
2022-07-29T07:53:04.246Z,995.24
2022-07-29T07:54:04.232Z,995.21
2022-07-29T07:55:04.269Z,995.08
2022-07-29T07:56:12.671Z,995.05
2022-07-29T07:57:06.222Z,995.12
2022-07-29T07:58:04.203Z,995.04
2022-07-29T07:59:04.204Z,994.98
2022-07-29T08:00:04.296Z,994.92
2022-07-29T08:01:04.269Z,994.97
2022-07-29T08:02:04.253Z,994.92
2022-07-29T08:03:04.198Z,994.90
2022-07-29T08:04:05.163Z,994.86
2022-07-29T08:05:04.197Z,994.84
2022-07-29T08:06:04.148Z,994.88
2022-07-29T08:07:04.135Z,994.91
2022-07-29T08:08:04.127Z,994.87
2022-07-29T08:09:27.670Z,994.86
2022-07-29T08:10:06.143Z,994.89
2022-07-29T08:11:08.737Z,994.85
2022-07-29T08:12:06.097Z,994.85
2022-07-29T08:13:04.083Z,994.80
2022-07-29T08:14:04.085Z,994.80
2022-07-29T08:15:04.100Z,994.75
2022-07-29T08:16:04.108Z,994.69
2022-07-29T08:17:04.086Z,994.69
2022-07-29T08:18:08.453Z,994.66
2022-07-29T08:19:05.062Z,994.71
2022-07-29T08:20:04.061Z,994.72
2022-07-29T08:21:04.030Z,994.71
2022-07-29T08:22:04.023Z,994.77
2022-07-29T08:23:04.012Z,994.73
2022-07-29T08:24:07.268Z,994.74
2022-07-29T08:25:05.028Z,994.74
2022-07-29T08:26:03.990Z,994.76
2022-07-29T08:27:03.987Z,994.74
2022-07-29T08:28:03.979Z,994.82
2022-07-29T08:29:03.968Z,994.92
2022-07-29T08:30:03.991Z,994.85
2022-07-29T08:31:03.955Z,994.86
2022-07-29T08:32:03.979Z,994.87
2022-07-29T08:33:03.929Z,994.84
2022-07-29T08:34:04.925Z,994.88
2022-07-29T08:35:03.959Z,994.88
2022-07-29T08:36:03.915Z,994.86
2022-07-29T08:37:03.913Z,994.92
2022-07-29T08:38:03.917Z,994.92
2022-07-29T08:39:03.899Z,994.95
2022-07-29T08:40:03.917Z,994.98
2022-07-29T08:41:03.883Z,994.99
2022-07-29T08:42:03.877Z,994.88
2022-07-29T08:43:03.883Z,995.00
2022-07-29T08:44:03.860Z,995.00
2022-07-29T08:45:03.880Z,995.00
2022-07-29T08:46:03.885Z,995.02
2022-07-29T08:47:03.846Z,994.93
2022-07-29T08:48:03.853Z,994.95
2022-07-29T08:49:03.886Z,994.99
2022-07-29T08:50:03.839Z,995.01
2022-07-29T08:51:04.372Z,995.03
2022-07-29T08:52:03.799Z,995.07
2022-07-29T08:53:03.793Z,995.05
2022-07-29T08:54:03.793Z,995.06
2022-07-29T08:55:03.807Z,995.06
2022-07-29T08:56:03.781Z,995.08
2022-07-29T08:57:03.767Z,995.10
2022-07-29T08:58:03.758Z,995.16
2022-07-29T08:59:04.858Z,995.13
2022-07-29T09:00:08.174Z,995.10
2022-07-29T09:01:07.732Z,995.09
2022-07-29T09:02:04.773Z,995.09
2022-07-29T09:03:03.724Z,995.08
2022-07-29T09:04:03.778Z,995.01
2022-07-29T09:05:03.737Z,994.98
2022-07-29T09:06:03.690Z,994.98
2022-07-29T09:07:03.690Z,995.01
2022-07-29T09:08:03.689Z,994.96
2022-07-29T09:09:03.675Z,995.07
2022-07-29T09:10:03.701Z,994.99
2022-07-29T09:11:04.056Z,995.01
2022-07-29T09:12:03.647Z,994.93
2022-07-29T09:13:03.639Z,994.91
2022-07-29T09:14:03.632Z,994.96
2022-07-29T09:15:03.664Z,994.93
2022-07-29T09:16:08.893Z,994.97
2022-07-29T09:17:05.978Z,994.98
2022-07-29T09:18:03.605Z,995.04
2022-07-29T09:19:03.598Z,995.09
2022-07-29T09:20:03.605Z,995.06
2022-07-29T09:21:03.604Z,995.02
2022-07-29T09:22:04.160Z,995.11
2022-07-29T09:23:03.571Z,995.11
2022-07-29T09:24:03.563Z,995.08
2022-07-29T09:25:03.551Z,995.06
2022-07-29T09:26:03.565Z,995.11
2022-07-29T09:27:03.543Z,995.09
2022-07-29T09:28:03.539Z,995.05
2022-07-29T09:29:03.534Z,995.07
2022-07-29T09:30:03.516Z,995.16
2022-07-29T09:31:03.551Z,995.10
2022-07-29T09:32:03.557Z,995.18
2022-07-29T09:33:03.497Z,995.10
2022-07-29T09:34:03.483Z,995.14
2022-07-29T09:35:03.478Z,995.10
2022-07-29T09:36:03.512Z,995.12
2022-07-29T09:37:03.470Z,995.05
2022-07-29T09:38:03.463Z,995.14
2022-07-29T09:39:03.447Z,995.11
2022-07-29T09:40:03.435Z,994.99
2022-07-29T09:41:05.794Z,995.01
2022-07-29T09:42:03.425Z,995.02
2022-07-29T09:43:03.427Z,994.94
2022-07-29T09:44:03.417Z,994.96
2022-07-29T09:45:03.401Z,994.95
2022-07-29T09:46:03.426Z,994.91
2022-07-29T09:47:03.396Z,994.92
2022-07-29T09:48:03.373Z,994.90
2022-07-29T09:49:03.467Z,994.91
2022-07-29T09:50:03.366Z,994.85
2022-07-29T09:51:03.384Z,994.78
2022-07-29T09:52:03.376Z,994.83
2022-07-29T09:53:03.344Z,994.77
2022-07-29T09:54:03.335Z,994.79
2022-07-29T09:55:03.337Z,994.78
2022-07-29T09:56:03.350Z,994.79
2022-07-29T09:57:03.329Z,994.82
2022-07-29T09:58:03.319Z,994.86
2022-07-29T09:59:03.296Z,994.85
2022-07-29T10:00:03.286Z,994.86
2022-07-29T10:01:03.347Z,994.82
2022-07-29T10:02:03.282Z,994.86
2022-07-29T10:03:03.314Z,994.75
2022-07-29T10:04:03.260Z,994.75
2022-07-29T10:05:03.248Z,994.69
2022-07-29T10:06:03.276Z,994.73
2022-07-29T10:07:05.185Z,994.68
2022-07-29T10:08:04.225Z,994.76
2022-07-29T10:09:03.221Z,994.72
2022-07-29T10:10:03.226Z,994.76
2022-07-29T10:11:03.247Z,994.70
2022-07-29T10:12:03.197Z,994.69
2022-07-29T10:13:07.980Z,994.76
2022-07-29T10:14:05.191Z,994.68
2022-07-29T10:15:03.176Z,994.76
2022-07-29T10:16:03.286Z,994.72
2022-07-29T10:17:03.184Z,994.69
2022-07-29T10:18:03.155Z,994.68
2022-07-29T10:19:03.151Z,994.72
2022-07-29T10:20:03.155Z,994.66
2022-07-29T10:21:03.138Z,994.67
2022-07-29T10:22:03.517Z,994.62
2022-07-29T10:23:03.097Z,994.65
2022-07-29T10:24:04.108Z,994.68
2022-07-29T10:25:03.093Z,994.64
2022-07-29T10:26:03.084Z,994.59
2022-07-29T10:27:03.111Z,994.59
2022-07-29T10:28:03.071Z,994.62
2022-07-29T10:29:03.093Z,994.55
2022-07-29T10:30:03.079Z,994.56
2022-07-29T10:31:03.086Z,994.53
2022-07-29T10:32:03.075Z,994.54
2022-07-29T10:33:03.036Z,994.53
2022-07-29T10:34:03.028Z,994.55
2022-07-29T10:35:03.038Z,994.50
2022-07-29T10:36:03.029Z,994.56
2022-07-29T10:37:03.052Z,994.48
2022-07-29T10:38:03.006Z,994.51
2022-07-29T10:39:03.189Z,994.46
2022-07-29T10:40:02.982Z,994.51
2022-07-29T10:41:02.978Z,994.54
2022-07-29T10:43:03.953Z,994.47
2022-07-29T10:44:02.951Z,994.48
2022-07-29T10:45:02.941Z,994.53
2022-07-29T10:46:02.931Z,994.57
2022-07-29T10:47:03.043Z,994.54
2022-07-29T10:48:03.923Z,994.46
2022-07-29T10:49:03.001Z,994.48
2022-07-29T10:50:02.907Z,994.46
2022-07-29T10:51:04.005Z,994.45
2022-07-29T10:52:03.461Z,994.49
2022-07-29T10:53:02.886Z,994.45
2022-07-29T10:54:02.882Z,994.49
2022-07-29T10:55:03.018Z,994.43
2022-07-29T10:56:06.508Z,994.37
2022-07-29T10:57:02.894Z,994.45
2022-07-29T10:58:02.861Z,994.44
2022-07-29T10:59:02.879Z,994.46
2022-07-29T11:00:02.867Z,994.39
2022-07-29T11:01:02.828Z,994.36
2022-07-29T11:02:35.315Z,994.30
2022-07-29T11:03:10.976Z,994.30
2022-07-29T11:04:03.797Z,994.40
2022-07-29T11:05:02.787Z,994.32
2022-07-29T11:06:02.795Z,994.43
2022-07-29T11:07:04.140Z,994.41
2022-07-29T11:08:02.782Z,994.36
2022-07-29T11:09:02.768Z,994.41
2022-07-29T11:10:02.775Z,994.34
2022-07-29T11:11:02.743Z,994.31
2022-07-29T11:12:02.928Z,994.30
2022-07-29T11:13:02.756Z,994.40
2022-07-29T11:14:02.718Z,994.33
2022-07-29T11:15:02.720Z,994.26
2022-07-29T11:16:02.711Z,994.30
2022-07-29T11:17:02.733Z,994.27
2022-07-29T11:18:02.691Z,994.29
2022-07-29T11:19:02.689Z,994.29
2022-07-29T11:20:02.705Z,994.29
2022-07-29T11:21:02.689Z,994.36
2022-07-29T11:22:02.756Z,994.27
2022-07-29T11:23:02.682Z,994.19
2022-07-29T11:24:02.647Z,994.23
2022-07-29T11:25:02.668Z,994.24
2022-07-29T11:26:02.658Z,994.22
2022-07-29T11:27:02.985Z,994.23
2022-07-29T11:28:02.658Z,994.17
2022-07-29T11:29:02.626Z,994.16
2022-07-29T11:30:03.401Z,994.15
2022-07-29T11:31:02.600Z,994.13
2022-07-29T11:32:02.593Z,994.14
2022-07-29T11:33:02.655Z,994.19
2022-07-29T11:34:05.661Z,994.16
2022-07-29T11:35:03.566Z,994.20
2022-07-29T11:36:03.564Z,994.18
2022-07-29T11:37:03.576Z,994.18
2022-07-29T11:38:02.569Z,994.22
2022-07-29T11:39:02.559Z,994.15
2022-07-29T11:40:02.566Z,994.11
2022-07-29T11:41:03.524Z,994.13
2022-07-29T11:42:05.150Z,994.17
2022-07-29T11:43:07.206Z,994.15
2022-07-29T11:44:02.500Z,994.19
2022-07-29T11:45:08.766Z,994.18
2022-07-29T11:46:03.491Z,994.17
2022-07-29T11:47:02.480Z,994.23
2022-07-29T11:48:28.499Z,994.21
2022-07-29T11:49:04.495Z,994.17
2022-07-29T11:50:03.456Z,994.17
2022-07-29T11:51:03.449Z,994.26
2022-07-29T11:52:03.253Z,994.20
2022-07-29T11:53:02.465Z,994.15
2022-07-29T11:54:05.423Z,994.10
2022-07-29T11:55:09.576Z,994.09
2022-07-29T11:56:03.784Z,994.06
2022-07-29T11:57:02.403Z,994.11
2022-07-29T11:58:03.817Z,994.08
2022-07-29T11:59:02.389Z,994.17
2022-07-29T12:00:09.524Z,994.12
2022-07-29T12:02:32.975Z,994.08
2022-07-29T12:03:04.450Z,994.15
2022-07-29T12:04:02.374Z,994.10
2022-07-29T12:05:02.349Z,994.06
2022-07-29T12:06:03.351Z,994.02
2022-07-29T12:07:03.725Z,994.11
2022-07-29T12:08:02.365Z,994.04
2022-07-29T12:09:02.359Z,994.05
2022-07-29T12:10:02.312Z,994.07
2022-07-29T12:11:02.301Z,993.97
2022-07-29T12:12:05.446Z,993.90
2022-07-29T12:13:03.319Z,993.95
2022-07-29T12:14:02.288Z,993.94
2022-07-29T12:15:02.309Z,993.95
2022-07-29T12:16:02.437Z,993.92
2022-07-29T12:17:02.281Z,993.89
2022-07-29T12:18:04.011Z,993.92
2022-07-29T12:19:03.235Z,993.90
2022-07-29T12:20:02.542Z,993.94
2022-07-29T12:21:03.129Z,993.92
2022-07-29T12:22:02.586Z,993.96
2022-07-29T12:23:02.240Z,993.94
2022-07-29T12:24:08.965Z,993.83
2022-07-29T12:25:31.975Z,993.80
2022-07-29T12:26:03.190Z,993.82
2022-07-29T12:27:02.456Z,993.81
2022-07-29T12:28:02.215Z,993.73
2022-07-29T12:29:02.425Z,993.73
2022-07-29T12:30:02.152Z,993.64